Time;durP1;ratioP1;P1;durP2;ratioP2;P2;SDS_P1;SDS_P2;PMS_P1;PMS_P2;Temp;Humidity;BMP_temperature;BMP_pressure;BME280_temperature;BME280_humidity;BME280_pressure;Samples;Min_cycle;Max_cycle;Signal;HPM_P1;HPM_P2
2022/02/23 00:00:21;;;;;;;1.53;0.50;;;9.00;99.90;;;;;;5077149;28;20465;-76
2022/02/23 00:02:49;;;;;;;0.60;0.60;;;9.10;99.90;;;;;;5081460;28;20469;-75
2022/02/23 00:05:17;;;;;;;1.40;0.57;;;9.30;99.90;;;;;;5085855;28;20451;-75
2022/02/23 00:07:45;;;;;;;1.93;0.70;;;9.30;99.90;;;;;;5076241;28;21262;-76
2022/02/23 00:10:15;;;;;;;1.70;0.70;;;9.30;99.90;;;;;;5080214;28;20991;-76
2022/02/23 00:12:43;;;;;;;0.80;0.50;;;9.10;99.90;;;;;;5084812;28;20488;-76
2022/02/23 00:15:11;;;;;;;1.60;0.50;;;9.30;99.90;;;;;;5079991;28;20468;-75
2022/02/23 00:17:42;;;;;;;0.70;0.70;;;9.30;99.90;;;;;;5081892;28;20459;-76
2022/02/23 00:20:12;;;;;;;0.90;0.63;;;9.30;99.90;;;;;;5084774;28;20459;-76
2022/02/23 00:22:41;;;;;;;0.60;0.60;;;9.30;1.00;;;;;;5082176;28;20496;-76
2022/02/23 00:25:10;;;;;;;1.03;0.50;;;9.20;1.00;;;;;;5082181;28;20510;-75
2022/02/23 00:27:40;;;;;;;0.77;0.70;;;9.30;99.90;;;;;;5083751;28;20471;-75
2022/02/23 00:30:09;;;;;;;0.80;0.60;;;9.30;99.90;;;;;;5079866;28;20453;-75
2022/02/23 00:32:37;;;;;;;2.30;0.60;;;9.20;99.90;;;;;;5084833;28;20477;-76
2022/02/23 00:35:06;;;;;;;1.00;0.60;;;9.10;99.90;;;;;;5084538;28;21799;-76
2022/02/23 00:37:35;;;;;;;0.43;0.43;;;9.10;99.90;;;;;;5082635;28;20449;-76
2022/02/23 00:40:03;;;;;;;1.53;0.60;;;9.10;99.90;;;;;;5085287;28;20460;-76
2022/02/23 00:42:31;;;;;;;1.20;0.50;;;9.10;99.90;;;;;;5085680;28;20467;-75
2022/02/23 00:45:01;;;;;;;0.50;0.50;;;9.00;10.00;;;;;;5082972;28;20466;-75
2022/02/23 00:47:29;;;;;;;1.80;0.40;;;9.10;1.00;;;;;;5082974;28;20547;-74
2022/02/23 00:49:57;;;;;;;0.60;0.60;;;9.00;99.90;;;;;;5076961;28;20457;-76
2022/02/23 00:52:26;;;;;;;3.00;1.07;;;9.00;99.90;;;;;;5083226;28;20473;-76
2022/02/23 00:54:54;;;;;;;0.50;0.50;;;8.90;2.40;;;;;;5084009;28;20487;-76
2022/02/23 00:57:22;;;;;;;0.50;0.50;;;9.10;99.90;;;;;;5083971;28;21026;-76
2022/02/23 00:59:51;;;;;;;0.60;0.50;;;9.20;99.90;;;;;;5081798;28;20462;-76
2022/02/23 01:02:21;;;;;;;0.60;0.60;;;9.20;99.90;;;;;;5080289;28;20465;-76
2022/02/23 01:04:49;;;;;;;1.60;0.70;;;9.40;11.10;;;;;;5082087;28;20455;-76
2022/02/23 01:07:17;;;;;;;0.40;0.40;;;9.40;1.00;;;;;;5079438;28;20461;-76
2022/02/23 01:09:46;;;;;;;0.60;0.57;;;9.30;38.00;;;;;;5083386;28;20449;-76
2022/02/23 01:12:16;;;;;;;2.03;0.60;;;9.50;1.00;;;;;;5080824;28;20529;-74
2022/02/23 01:14:44;;;;;;;0.60;0.50;;;9.40;1.00;;;;;;5083311;28;20471;-75
2022/02/23 01:17:12;;;;;;;0.40;0.40;;;9.30;99.90;;;;;;5081072;28;20861;-75
2022/02/23 01:19:42;;;;;;;0.70;0.50;;;9.40;2.50;;;;;;5078959;28;20469;-75
2022/02/23 01:22:10;;;;;;;0.97;0.60;;;9.50;99.90;;;;;;5082582;28;20483;-74
2022/02/23 01:24:38;;;;;;;1.03;0.50;;;9.30;1.00;;;;;;5082073;28;20443;-74
2022/02/23 01:27:06;;;;;;;0.50;0.50;;;9.40;1.00;;;;;;5082523;28;20443;-74
2022/02/23 01:29:35;;;;;;;0.60;0.60;;;9.30;1.00;;;;;;5079847;28;20524;-75
2022/02/23 01:32:04;;;;;;;1.00;0.57;;;9.30;12.50;;;;;;5082807;28;20449;-74
2022/02/23 01:34:32;;;;;;;0.50;0.50;;;9.30;99.90;;;;;;5081702;28;20511;-75
2022/02/23 01:37:05;;;;;;;0.53;0.53;;;9.40;99.90;;;;;;5081769;28;20525;-75
2022/02/23 01:39:33;;;;;;;0.50;0.50;;;9.50;99.90;;;;;;5079465;28;20506;-75
2022/02/23 01:42:03;;;;;;;3.90;0.70;;;9.50;87.80;;;;;;5081409;28;20449;-76
2022/02/23 01:44:32;;;;;;;0.80;0.50;;;9.60;1.00;;;;;;5081274;28;20465;-75
2022/02/23 01:47:00;;;;;;;1.17;0.50;;;9.80;1.00;;;;;;5081466;28;20482;-75
2022/02/23 01:49:28;;;;;;;2.20;0.87;;;9.90;99.90;;;;;;5081465;28;20472;-75
2022/02/23 01:51:57;;;;;;;0.80;0.60;;;9.90;92.80;;;;;;5076483;28;20566;-76
2022/02/23 01:54:26;;;;;;;1.63;0.60;;;10.00;21.30;;;;;;5083335;28;20477;-76
2022/02/23 01:56:54;;;;;;;1.43;0.70;;;10.00;1.00;;;;;;5084260;28;20453;-76
2022/02/23 01:59:23;;;;;;;0.50;0.50;;;10.00;1.00;;;;;;5084868;28;20457;-75
2022/02/23 02:01:52;;;;;;;1.03;0.60;;;10.00;1.00;;;;;;5084431;28;20464;-76
2022/02/23 02:04:21;;;;;;;1.43;0.53;;;10.10;1.00;;;;;;5087358;28;20463;-76
2022/02/23 02:06:50;;;;;;;1.20;0.63;;;10.10;1.00;;;;;;5082988;28;20467;-75
2022/02/23 02:09:18;;;;;;;0.50;0.50;;;10.10;5.50;;;;;;5086394;28;20448;-76
2022/02/23 02:11:48;;;;;;;0.67;0.67;;;10.20;1.00;;;;;;5087884;28;20456;-75
2022/02/23 02:14:16;;;;;;;0.50;0.50;;;10.20;1.00;;;;;;5086972;28;20839;-75
2022/02/23 02:16:44;;;;;;;0.97;0.50;;;10.20;1.00;;;;;;5087961;28;20457;-76
2022/02/23 02:19:15;;;;;;;1.70;0.50;;;10.10;99.90;;;;;;5086075;28;20563;-77
2022/02/23 02:21:55;;;;;;;0.50;0.50;;;9.80;32.40;;;;;;5087104;28;20469;-76
2022/02/23 02:24:24;;;;;;;0.87;0.80;;;9.70;1.00;;;;;;5084482;28;20452;-77
2022/02/23 02:26:53;;;;;;;2.03;0.50;;;9.60;1.00;;;;;;5090599;28;20509;-78
2022/02/23 02:29:22;;;;;;;1.37;0.90;;;9.50;1.00;;;;;;5082205;28;20472;-77
2022/02/23 02:31:51;;;;;;;1.27;0.50;;;9.40;1.00;;;;;;5084667;28;20467;-76
2022/02/23 02:34:20;;;;;;;1.20;0.57;;;9.50;1.00;;;;;;5086789;28;20832;-76
2022/02/23 02:36:49;;;;;;;0.40;0.40;;;9.30;1.00;;;;;;5086781;28;20456;-76
2022/02/23 02:39:23;;;;;;;3.80;0.77;;;9.30;1.00;;;;;;5086098;28;20458;-76
2022/02/23 02:41:52;;;;;;;1.03;0.50;;;9.30;1.00;;;;;;5087276;28;20453;-76
2022/02/23 02:44:21;;;;;;;0.73;0.60;;;9.20;1.00;;;;;;5088256;28;20485;-76
2022/02/23 02:46:50;;;;;;;2.13;0.60;;;9.30;1.00;;;;;;5082487;28;20589;-77
2022/02/23 02:49:19;;;;;;;2.47;0.97;;;9.40;1.00;;;;;;5086618;28;20462;-76
2022/02/23 02:51:48;;;;;;;2.47;0.60;;;9.30;1.00;;;;;;5083814;28;20468;-76
2022/02/23 02:54:17;;;;;;;3.20;0.90;;;9.40;1.00;;;;;;5086065;28;20467;-76
2022/02/23 02:56:47;;;;;;;1.30;0.50;;;9.50;1.00;;;;;;5084542;28;20452;-76
2022/02/23 02:59:15;;;;;;;1.13;0.40;;;9.40;1.00;;;;;;5083876;28;20453;-76
2022/02/23 03:01:43;;;;;;;1.10;0.60;;;9.60;1.00;;;;;;5086090;28;21096;-75
2022/02/23 03:04:12;;;;;;;1.77;0.53;;;9.50;1.00;;;;;;5085926;28;20469;-75
2022/02/23 03:06:40;;;;;;;0.80;0.63;;;9.40;1.00;;;;;;5083177;28;20448;-76
2022/02/23 03:09:09;;;;;;;1.30;0.63;;;9.40;1.00;;;;;;5085711;28;20454;-76
2022/02/23 03:11:37;;;;;;;0.80;0.70;;;9.50;1.00;;;;;;5087836;28;21144;-76
2022/02/23 03:14:06;;;;;;;4.40;0.90;;;9.50;1.00;;;;;;5085980;28;20470;-76
2022/02/23 03:16:35;;;;;;;1.07;0.70;;;9.70;1.00;;;;;;5086542;28;20852;-76
2022/02/23 03:19:03;;;;;;;3.57;0.60;;;9.60;1.00;;;;;;5086651;28;20479;-76
2022/02/23 03:21:32;;;;;;;1.50;0.60;;;9.60;1.00;;;;;;5084863;28;20974;-76
2022/02/23 03:24:01;;;;;;;1.50;0.60;;;9.70;1.00;;;;;;5083323;28;20479;-76
2022/02/23 03:26:29;;;;;;;3.13;1.20;;;9.70;1.00;;;;;;5087383;28;20823;-75
2022/02/23 03:28:57;;;;;;;1.40;0.73;;;9.80;1.00;;;;;;5078855;28;20585;-76
2022/02/23 03:31:27;;;;;;;0.80;0.80;;;9.70;1.00;;;;;;5087120;28;20514;-76
2022/02/23 03:33:55;;;;;;;0.70;0.63;;;9.70;1.00;;;;;;5086904;28;20472;-75
2022/02/23 03:36:23;;;;;;;2.20;0.77;;;9.80;1.00;;;;;;5086062;28;20466;-75
2022/02/23 03:38:51;;;;;;;2.13;0.70;;;9.80;99.90;;;;;;5085283;28;20452;-76
2022/02/23 03:41:19;;;;;;;0.70;0.70;;;9.70;99.90;;;;;;5083668;28;20830;-76
2022/02/23 03:43:48;;;;;;;0.80;0.70;;;9.70;1.00;;;;;;5082980;28;20476;-77
2022/02/23 03:46:16;;;;;;;9.03;1.90;;;9.70;99.90;;;;;;5085636;28;20456;-77
2022/02/23 03:48:46;;;;;;;2.00;1.00;;;9.70;99.90;;;;;;5081746;28;20445;-77
2022/02/23 03:51:14;;;;;;;2.80;0.80;;;9.70;99.90;;;;;;5083812;28;20461;-76
2022/02/23 03:53:43;;;;;;;1.10;0.87;;;9.70;99.90;;;;;;5080827;28;20499;-76
2022/02/23 03:58:53;;;;;;;2.00;0.63;;;9.60;99.90;;;;;;5070794;28;20463;-76
2022/02/23 04:01:21;;;;;;;1.20;0.80;;;9.60;99.90;;;;;;5080251;28;20463;-77
2022/02/23 04:03:51;;;;;;;2.03;0.77;;;9.60;99.90;;;;;;5085891;28;20487;-77
2022/02/23 04:06:19;;;;;;;2.23;0.70;;;9.50;99.90;;;;;;5081704;28;20475;-76
2022/02/23 04:08:47;;;;;;;3.20;0.80;;;9.50;99.90;;;;;;5086676;28;21077;-76
2022/02/23 04:11:16;;;;;;;1.83;0.70;;;9.50;99.90;;;;;;5082354;28;20443;-76
2022/02/23 04:13:45;;;;;;;2.53;0.77;;;9.50;99.90;;;;;;5080918;28;20567;-77
2022/02/23 04:16:13;;;;;;;1.40;0.83;;;9.50;99.90;;;;;;5082501;28;20466;-76
2022/02/23 04:18:43;;;;;;;2.00;0.90;;;9.50;99.90;;;;;;5082171;28;20464;-76
2022/02/23 04:21:12;;;;;;;2.10;0.80;;;9.40;99.90;;;;;;5085680;28;20479;-77
2022/02/23 04:23:41;;;;;;;0.70;0.60;;;9.40;99.90;;;;;;5077410;28;20462;-76
2022/02/23 04:26:09;;;;;;;0.60;0.60;;;9.40;99.90;;;;;;5079583;28;20445;-77
2022/02/23 04:28:37;;;;;;;4.77;0.80;;;9.50;99.90;;;;;;5081925;28;20459;-77
2022/02/23 04:31:05;;;;;;;1.07;0.70;;;9.50;99.90;;;;;;5085171;28;20484;-77
2022/02/23 04:33:35;;;;;;;1.23;0.60;;;9.80;99.90;;;;;;5081547;28;20475;-76
2022/02/23 04:36:05;;;;;;;2.83;0.83;;;9.50;99.90;;;;;;5078525;28;20484;-76
2022/02/23 04:38:37;;;;;;;1.03;0.50;;;9.50;99.90;;;;;;5077393;28;20465;-75
2022/02/23 04:41:05;;;;;;;2.87;0.70;;;9.50;99.90;;;;;;5078370;28;20457;-76
2022/02/23 04:43:35;;;;;;;1.23;0.80;;;9.50;99.90;;;;;;5081177;28;20478;-76
2022/02/23 04:46:06;;;;;;;0.93;0.73;;;9.50;99.90;;;;;;5083439;28;20941;-75
2022/02/23 04:48:36;;;;;;;2.23;1.27;;;9.60;99.90;;;;;;5073775;28;21005;-76
2022/02/23 04:51:05;;;;;;;3.57;0.67;;;9.60;99.90;;;;;;5077737;28;20461;-77
2022/02/23 04:53:34;;;;;;;1.13;0.90;;;9.50;99.90;;;;;;5079326;28;20863;-76
2022/02/23 04:56:04;;;;;;;1.92;1.00;;;9.60;99.90;;;;;;5080539;28;20448;-76
2022/02/23 04:58:32;;;;;;;0.83;0.60;;;9.60;99.90;;;;;;5081997;28;20640;-76
2022/02/23 05:01:01;;;;;;;1.13;1.00;;;9.60;99.90;;;;;;5079446;28;20445;-77
2022/02/23 05:03:29;;;;;;;1.37;0.90;;;9.60;99.90;;;;;;5084425;28;20461;-76
2022/02/23 05:05:59;;;;;;;1.67;1.20;;;9.60;99.90;;;;;;5080883;28;20457;-76
2022/02/23 05:08:28;;;;;;;2.43;1.30;;;9.50;99.90;;;;;;5077746;28;20446;-76
2022/02/23 05:10:58;;;;;;;3.80;1.40;;;9.50;99.90;;;;;;5081101;28;20449;-77
2022/02/23 05:13:26;;;;;;;3.23;0.80;;;9.50;99.90;;;;;;5080903;28;20894;-78
2022/02/23 05:15:56;;;;;;;1.90;0.80;;;9.40;99.90;;;;;;5083785;28;20482;-81
2022/02/23 05:18:26;;;;;;;0.90;0.80;;;9.40;99.90;;;;;;5079951;28;20476;-80
2022/02/23 05:20:55;;;;;;;1.00;0.80;;;9.40;99.90;;;;;;5083616;28;20458;-79
2022/02/23 05:23:23;;;;;;;0.83;0.80;;;9.30;99.90;;;;;;5081445;28;20463;-79
2022/02/23 05:25:52;;;;;;;1.10;0.70;;;9.50;99.90;;;;;;5083189;28;20459;-76
2022/02/23 05:28:22;;;;;;;1.23;0.60;;;9.40;99.90;;;;;;5081533;28;21035;-77
2022/02/23 05:30:50;;;;;;;3.33;0.70;;;9.30;99.90;;;;;;5081915;28;21004;-77
2022/02/23 05:33:19;;;;;;;1.27;0.90;;;9.30;99.90;;;;;;5080804;28;20476;-75
2022/02/23 05:35:47;;;;;;;1.23;0.80;;;9.30;99.90;;;;;;5081323;28;20944;-74
2022/02/23 05:38:15;;;;;;;3.20;0.70;;;9.20;99.90;;;;;;5080848;28;20445;-75
2022/02/23 05:40:44;;;;;;;0.93;0.77;;;9.20;99.90;;;;;;5083592;28;20454;-76
2022/02/23 05:43:12;;;;;;;0.80;0.80;;;9.40;99.90;;;;;;5081918;28;21097;-76
2022/02/23 05:45:41;;;;;;;2.77;1.50;;;9.10;99.90;;;;;;5081138;28;20456;-77
2022/02/23 05:48:10;;;;;;;1.70;1.60;;;9.10;99.90;;;;;;5080957;28;20902;-76
2022/02/23 05:50:38;;;;;;;2.50;1.37;;;9.40;99.90;;;;;;5081521;28;20758;-77
2022/02/23 05:53:06;;;;;;;5.93;1.40;;;9.20;99.90;;;;;;5078570;28;20473;-76
2022/02/23 05:55:35;;;;;;;2.63;1.40;;;9.20;99.90;;;;;;5082345;28;20435;-76
2022/02/23 05:58:03;;;;;;;1.83;0.97;;;9.10;99.90;;;;;;5079468;28;20488;-75
2022/02/23 06:00:31;;;;;;;0.97;0.70;;;9.10;99.90;;;;;;5077854;28;20519;-77
2022/02/23 06:03:01;;;;;;;1.77;0.80;;;9.10;99.90;;;;;;5082792;28;20838;-75
2022/02/23 06:05:29;;;;;;;5.43;1.00;;;9.10;99.90;;;;;;5079019;28;20532;-76
2022/02/23 06:07:57;;;;;;;0.83;0.80;;;9.20;99.90;;;;;;5082973;28;20453;-76
2022/02/23 06:10:27;;;;;;;4.40;1.00;;;9.10;99.90;;;;;;5080466;28;20793;-76
2022/02/23 06:12:55;;;;;;;3.03;0.87;;;9.20;99.90;;;;;;5079883;28;20498;-76
2022/02/23 06:15:25;;;;;;;1.40;0.70;;;9.20;99.90;;;;;;5080604;28;20461;-76
2022/02/23 06:17:53;;;;;;;1.83;0.80;;;9.20;99.90;;;;;;5078393;28;20489;-77
2022/02/23 06:20:23;;;;;;;3.13;1.00;;;9.20;99.90;;;;;;5086360;28;20462;-76
2022/02/23 06:22:51;;;;;;;0.70;0.70;;;9.10;99.90;;;;;;5080433;28;20472;-76
2022/02/23 06:25:21;;;;;;;3.00;0.83;;;9.10;99.90;;;;;;5077769;28;20527;-75
2022/02/23 06:27:49;;;;;;;2.10;0.90;;;9.30;99.90;;;;;;5079703;28;20449;-76
2022/02/23 06:30:17;;;;;;;1.97;0.90;;;9.10;99.90;;;;;;5080133;28;20461;-77
2022/02/23 06:32:46;;;;;;;1.83;1.00;;;8.80;99.90;;;;;;5081277;28;20469;-76
2022/02/23 06:35:14;;;;;;;2.60;0.80;;;9.00;99.90;;;;;;5085135;28;20548;-76
2022/02/23 06:37:44;;;;;;;2.30;1.27;;;9.10;99.90;;;;;;5079593;28;20470;-76
2022/02/23 06:40:13;;;;;;;3.80;0.70;;;8.90;99.90;;;;;;5086649;28;20455;-77
2022/02/23 06:42:42;;;;;;;1.50;0.67;;;8.90;99.90;;;;;;5067197;28;20474;-76
2022/02/23 06:45:11;;;;;;;1.77;0.87;;;8.90;99.90;;;;;;5069905;28;20473;-76
2022/02/23 06:47:39;;;;;;;1.70;0.63;;;8.90;99.90;;;;;;5083914;28;20452;-77
2022/02/23 06:50:08;;;;;;;1.90;0.90;;;8.90;99.90;;;;;;5076495;28;20449;-77
2022/02/23 06:52:37;;;;;;;2.10;0.70;;;9.00;99.90;;;;;;5077653;28;20984;-76
2022/02/23 06:55:10;;;;;;;1.00;0.90;;;9.00;99.90;;;;;;5069944;28;20461;-77
2022/02/23 06:57:39;;;;;;;0.90;0.70;;;8.90;99.90;;;;;;5083386;28;20487;-76
2022/02/23 07:00:09;;;;;;;1.43;0.77;;;8.90;99.90;;;;;;5089906;28;20796;-76
2022/02/23 07:02:37;;;;;;;2.30;0.80;;;8.90;99.90;;;;;;5088447;28;20477;-76
2022/02/23 07:05:07;;;;;;;1.15;1.00;;;8.80;99.90;;;;;;5088859;28;20452;-76
2022/02/23 07:07:36;;;;;;;2.53;0.80;;;8.80;99.90;;;;;;5081935;28;20215;-76
2022/02/23 07:10:12;;;;;;;0.70;0.70;;;8.90;99.90;;;;;;5085067;28;20503;-76
2022/02/23 07:12:41;;;;;;;0.80;0.80;;;8.90;99.90;;;;;;5078662;28;20551;-76
2022/02/23 07:15:09;;;;;;;1.67;0.80;;;8.90;99.90;;;;;;5083937;28;20457;-76
2022/02/23 07:17:38;;;;;;;1.53;0.80;;;9.10;99.90;;;;;;5068251;28;20473;-76
2022/02/23 07:20:07;;;;;;;1.30;1.00;;;9.00;99.90;;;;;;5085354;28;20475;-77
2022/02/23 07:22:36;;;;;;;2.03;1.00;;;9.00;99.90;;;;;;5079504;28;20468;-76
2022/02/23 07:25:06;;;;;;;1.20;1.10;;;9.00;99.90;;;;;;5088888;28;20480;-76
2022/02/23 07:27:36;;;;;;;1.80;0.90;;;9.00;99.90;;;;;;5088455;28;20449;-78
2022/02/23 07:30:07;;;;;;;3.70;1.20;;;9.00;99.90;;;;;;5085269;28;20505;-78
2022/02/23 07:32:38;;;;;;;2.00;0.80;;;9.10;99.90;;;;;;5077554;28;20502;-76
2022/02/23 07:35:10;;;;;;;2.00;1.10;;;9.20;99.90;;;;;;5080519;28;20450;-76
2022/02/23 07:37:41;;;;;;;1.53;1.00;;;9.20;99.90;;;;;;5084561;28;20526;-76
2022/02/23 07:40:14;;;;;;;1.60;0.90;;;9.20;99.90;;;;;;5089496;28;20457;-76
2022/02/23 07:43:04;;;;;;;3.47;1.07;;;9.10;99.90;;;;;;5088773;28;20481;-77
2022/02/23 07:45:40;;;;;;;4.50;1.43;;;9.10;99.90;;;;;;5087087;28;20461;-76
2022/02/23 07:48:09;;;;;;;2.40;0.70;;;9.10;99.90;;;;;;5080998;28;20458;-76
2022/02/23 07:50:38;;;;;;;4.63;1.07;;;9.20;99.90;;;;;;5083993;28;20449;-77
2022/02/23 07:53:07;;;;;;;1.80;0.77;;;9.20;99.90;;;;;;5083984;28;20531;-76
2022/02/23 07:55:37;;;;;;;0.77;0.70;;;9.10;99.90;;;;;;5074478;28;20460;-76
2022/02/23 07:58:06;;;;;;;1.27;0.70;;;9.20;99.90;;;;;;5077595;28;20484;-76
2022/02/23 08:00:35;;;;;;;0.90;0.90;;;9.20;99.90;;;;;;5075761;28;20875;-76
2022/02/23 08:03:04;;;;;;;1.60;0.80;;;9.30;99.90;;;;;;5083322;28;20564;-78
2022/02/23 08:05:32;;;;;;;1.20;0.80;;;9.50;1.00;;;;;;5088626;28;20472;-76
2022/02/23 08:08:00;;;;;;;2.33;0.90;;;9.70;1.00;;;;;;5087481;28;20693;-76
2022/02/23 08:10:29;;;;;;;1.07;0.90;;;9.90;1.00;;;;;;5088187;28;20453;-77
2022/02/23 08:12:58;;;;;;;1.10;0.90;;;10.00;1.00;;;;;;5086214;28;20465;-76
2022/02/23 08:21:01;;;;;;;1.67;0.80;;;10.40;99.90;;;;;;5078186;28;20964;-77
2022/02/23 08:23:30;;;;;;;1.63;1.00;;;10.50;99.90;;;;;;5080691;28;20468;-76
2022/02/23 08:25:58;;;;;;;1.40;0.70;;;10.60;99.90;;;;;;5080909;28;20454;-76
2022/02/23 08:28:26;;;;;;;7.80;1.00;;;10.50;99.90;;;;;;5082241;28;20446;-76
2022/02/23 08:30:56;;;;;;;2.07;1.00;;;10.40;99.90;;;;;;5085543;28;20983;-76
2022/02/23 08:33:25;;;;;;;2.73;1.10;;;10.50;99.90;;;;;;5084679;28;20480;-77
2022/02/23 08:35:55;;;;;;;1.17;0.93;;;10.40;99.90;;;;;;5079383;28;20447;-77
2022/02/23 08:38:23;;;;;;;2.50;1.20;;;10.40;99.90;;;;;;5080844;28;20482;-77
2022/02/23 08:40:52;;;;;;;2.70;1.30;;;10.40;99.90;;;;;;5079313;28;21155;-78
2022/02/23 08:43:20;;;;;;;2.30;1.00;;;10.50;99.90;;;;;;5074501;28;21318;-77
2022/02/23 08:45:49;;;;;;;2.03;1.10;;;10.40;99.90;;;;;;5091632;28;20839;-77
2022/02/23 08:48:18;;;;;;;1.67;1.00;;;10.40;99.90;;;;;;5088543;28;20461;-77
2022/02/23 08:51:07;;;;;;;1.30;0.90;;;10.50;99.90;;;;;;5087798;28;20610;-77
2022/02/23 08:53:35;;;;;;;2.60;1.57;;;10.60;99.90;;;;;;5083120;28;20479;-77
2022/02/23 08:56:04;;;;;;;2.47;0.97;;;10.80;99.90;;;;;;5081276;28;20519;-76
2022/02/23 08:58:38;;;;;;;3.63;1.10;;;11.00;99.90;;;;;;5067789;28;20831;-77
2022/02/23 09:01:06;;;;;;;4.87;1.10;;;11.10;99.90;;;;;;5081418;28;20446;-76
2022/02/23 09:03:36;;;;;;;2.33;0.90;;;11.30;99.90;;;;;;5096787;28;20473;-77
2022/02/23 09:06:04;;;;;;;6.60;0.90;;;11.50;99.90;;;;;;5084950;28;20453;-76
2022/02/23 09:08:33;;;;;;;2.23;1.10;;;11.50;99.90;;;;;;5066898;28;20539;-76
2022/02/23 09:11:02;;;;;;;1.73;0.73;;;11.70;99.90;;;;;;5082448;28;20448;-77
2022/02/23 09:13:30;;;;;;;1.30;1.20;;;11.80;99.90;;;;;;5086534;28;20472;-77
2022/02/23 09:15:59;;;;;;;1.57;0.70;;;11.80;99.90;;;;;;5082684;28;20455;-77
2022/02/23 09:18:27;;;;;;;1.20;0.70;;;11.90;99.90;;;;;;5085189;28;20503;-77
2022/02/23 09:20:56;;;;;;;5.97;1.77;;;12.00;99.90;;;;;;5084814;28;20455;-77
2022/02/23 09:23:27;;;;;;;3.07;0.93;;;12.10;99.90;;;;;;5079891;28;20482;-77
2022/02/23 09:25:55;;;;;;;3.07;0.80;;;12.30;99.90;;;;;;5079485;28;20462;-77
2022/02/23 09:28:24;;;;;;;3.80;0.90;;;12.50;99.90;;;;;;5078017;28;20983;-77
2022/02/23 09:30:52;;;;;;;3.10;0.97;;;12.60;99.90;;;;;;5085917;28;20457;-78
2022/02/23 09:33:20;;;;;;;3.40;1.00;;;12.70;99.90;;;;;;5085641;28;20460;-77
2022/02/23 09:35:49;;;;;;;3.33;0.90;;;12.80;99.90;;;;;;5080740;28;20960;-77
2022/02/23 09:38:20;;;;;;;2.90;0.73;;;12.90;99.90;;;;;;5086216;28;20479;-77
2022/02/23 09:40:49;;;;;;;2.90;1.00;;;13.10;99.90;;;;;;5083295;28;20473;-76
2022/02/23 09:43:17;;;;;;;1.73;1.00;;;13.30;99.90;;;;;;5083598;28;20567;-77
2022/02/23 09:45:51;;;;;;;1.90;1.00;;;13.50;99.90;;;;;;5080038;28;20762;-78
2022/02/23 09:48:20;;;;;;;2.63;0.80;;;13.60;99.90;;;;;;5076392;28;20443;-77
2022/02/23 09:50:50;;;;;;;4.57;0.93;;;13.70;99.90;;;;;;5080802;28;20464;-77
2022/02/23 09:53:21;;;;;;;4.30;0.97;;;13.80;99.90;;;;;;5078666;28;20529;-78
2022/02/23 09:55:52;;;;;;;2.17;0.77;;;13.80;99.90;;;;;;5081393;28;20474;-77
2022/02/23 09:58:20;;;;;;;2.43;0.80;;;13.80;99.90;;;;;;5087282;28;21007;-77
2022/02/23 10:00:49;;;;;;;1.57;0.80;;;13.90;99.90;;;;;;5083883;28;20484;-78
2022/02/23 10:03:19;;;;;;;3.07;2.50;;;13.80;99.90;;;;;;5087064;28;20480;-77
2022/02/23 10:05:49;;;;;;;2.37;0.80;;;13.90;99.90;;;;;;5086392;28;20894;-76
2022/02/23 10:08:19;;;;;;;1.87;0.80;;;13.80;99.90;;;;;;5083908;28;20455;-77
2022/02/23 10:11:06;;;;;;;3.87;0.67;;;13.80;99.90;;;;;;5089506;28;20447;-77
2022/02/23 10:13:35;;;;;;;5.13;1.97;;;13.70;99.90;;;;;;5081447;28;20475;-77
2022/02/23 10:16:09;;;;;;;2.37;0.90;;;13.70;99.90;;;;;;5085910;28;20545;-77
2022/02/23 10:19:06;;;;;;;2.27;0.90;;;13.60;99.90;;;;;;5086249;28;20868;-77
2022/02/23 10:21:45;;;;;;;1.87;0.60;;;13.70;99.90;;;;;;5084354;28;20461;-77
2022/02/23 10:24:24;;;;;;;2.00;0.87;;;14.00;99.90;;;;;;5087262;28;20474;-78
2022/02/23 10:27:05;;;;;;;2.23;0.70;;;14.20;99.90;;;;;;5084039;28;20490;-78
2022/02/23 10:29:38;;;;;;;0.57;0.53;;;14.50;99.90;;;;;;5080979;28;20837;-77
2022/02/23 10:32:09;;;;;;;0.80;0.70;;;14.40;99.90;;;;;;5082273;28;20452;-77
2022/02/23 10:34:39;;;;;;;1.17;0.70;;;14.50;99.90;;;;;;5087569;28;20465;-77
2022/02/23 10:37:17;;;;;;;1.10;0.67;;;14.60;99.90;;;;;;5088723;28;20880;-77
2022/02/23 10:39:48;;;;;;;1.00;0.60;;;14.50;99.90;;;;;;5076723;28;20486;-77
2022/02/23 10:42:18;;;;;;;1.23;0.60;;;14.40;99.90;;;;;;5077644;28;20466;-77
2022/02/23 10:44:49;;;;;;;1.37;0.60;;;14.20;99.90;;;;;;5079709;28;20440;-77
2022/02/23 10:47:26;;;;;;;0.80;0.80;;;14.20;99.90;;;;;;5083894;28;20466;-77
2022/02/23 10:50:04;;;;;;;2.10;0.70;;;14.10;99.90;;;;;;5091771;28;20462;-78
2022/02/23 10:52:34;;;;;;;1.13;0.70;;;14.00;99.90;;;;;;5079632;28;21251;-76
2022/02/23 10:55:19;;;;;;;1.53;0.60;;;14.10;99.90;;;;;;5080105;28;20812;-78
2022/02/23 10:57:50;;;;;;;3.00;0.90;;;14.30;99.90;;;;;;5088700;28;20458;-80
2022/02/23 11:00:21;;;;;;;1.67;1.37;;;14.70;99.90;;;;;;5081465;28;20867;-81
2022/02/23 11:02:50;;;;;;;1.87;0.70;;;15.00;99.90;;;;;;5096814;28;20927;-80
2022/02/23 11:05:23;;;;;;;0.97;0.70;;;15.20;99.90;;;;;;5091019;28;20487;-79
2022/02/23 11:07:52;;;;;;;3.20;0.90;;;15.40;99.90;;;;;;5086035;28;20467;-77
2022/02/23 11:10:23;;;;;;;1.30;0.80;;;15.50;99.90;;;;;;5086499;28;20545;-78
2022/02/23 11:12:54;;;;;;;2.30;0.90;;;15.20;99.90;;;;;;5083899;28;20465;-77
2022/02/23 11:15:23;;;;;;;3.00;0.70;;;14.70;99.90;;;;;;5087753;28;20462;-78
2022/02/23 11:17:53;;;;;;;1.00;0.70;;;14.50;99.90;;;;;;5088198;28;20448;-78
2022/02/23 11:20:24;;;;;;;2.00;1.00;;;14.60;99.90;;;;;;5082377;28;20477;-77
2022/02/23 11:22:56;;;;;;;5.10;1.03;;;15.00;99.90;;;;;;5085422;28;21259;-79
2022/02/23 11:25:30;;;;;;;2.13;0.77;;;15.50;99.90;;;;;;5081222;28;21354;-77
2022/02/23 11:28:05;;;;;;;1.53;0.70;;;16.40;99.90;;;;;;5081193;28;20459;-78
2022/02/23 11:30:34;;;;;;;3.27;0.80;;;17.00;99.90;;;;;;5073804;28;20453;-79
2022/02/23 11:33:04;;;;;;;2.50;0.83;;;17.50;99.90;;;;;;5088280;28;20501;-79
2022/02/23 11:35:54;;;;;;;2.77;0.87;;;17.50;99.90;;;;;;5096385;28;20531;-79
2022/02/23 11:38:28;;;;;;;0.93;0.70;;;17.00;99.90;;;;;;5090675;28;20457;-80
2022/02/23 11:41:00;;;;;;;0.90;0.60;;;16.90;99.90;;;;;;5084228;28;20482;-79
2022/02/23 11:43:33;;;;;;;2.53;0.73;;;16.70;99.90;;;;;;5084308;28;20523;-79
2022/02/23 11:49:13;;;;;;;3.13;0.90;;;16.30;99.90;;;;;;5087802;28;20449;-78
2022/02/23 11:58:00;;;;;;;4.63;0.80;;;16.10;99.90;;;;;;5077415;28;20509;-78
2022/02/23 12:00:57;;;;;;;1.00;0.80;;;15.90;99.90;;;;;;5078384;28;20488;-77
2022/02/23 12:03:28;;;;;;;2.00;0.80;;;15.80;99.90;;;;;;5083981;28;20459;-78
2022/02/23 12:05:58;;;;;;;3.23;0.90;;;15.60;99.90;;;;;;5081346;28;20453;-77
2022/02/23 12:08:46;;;;;;;2.77;0.67;;;15.40;99.90;;;;;;5084151;28;20460;-77
2022/02/23 12:11:42;;;;;;;2.47;0.97;;;15.10;99.90;;;;;;5074748;28;20482;-78
2022/02/23 12:14:16;;;;;;;2.00;0.73;;;15.00;99.90;;;;;;5086131;28;20479;-78
2022/02/23 12:16:49;;;;;;;1.17;0.80;;;14.90;99.90;;;;;;5086609;28;20851;-77
2022/02/23 12:19:39;;;;;;;4.37;1.00;;;14.90;99.90;;;;;;5088034;28;20466;-77
2022/02/23 12:22:08;;;;;;;1.53;0.70;;;15.10;99.90;;;;;;5084285;28;20500;-78
2022/02/23 12:24:44;;;;;;;2.20;0.77;;;15.20;99.90;;;;;;5086825;28;20510;-77
2022/02/23 12:27:13;;;;;;;2.23;0.90;;;15.20;99.90;;;;;;5082298;28;20508;-78
2022/02/23 12:29:42;;;;;;;1.70;0.70;;;15.20;99.90;;;;;;5081364;28;21975;-77
2022/02/23 12:32:11;;;;;;;2.10;0.70;;;15.30;99.90;;;;;;5082233;28;20524;-76
2022/02/23 12:34:40;;;;;;;1.40;0.70;;;15.40;99.90;;;;;;5070965;28;21119;-77
2022/02/23 12:37:28;;;;;;;1.93;0.80;;;15.40;99.90;;;;;;5076876;28;20452;-78
2022/02/23 12:40:02;;;;;;;2.07;0.80;;;15.50;99.90;;;;;;5083226;28;20499;-77
2022/02/23 12:42:31;;;;;;;3.17;0.80;;;15.50;99.90;;;;;;5075940;28;20555;-77
2022/02/23 12:45:02;;;;;;;1.00;0.70;;;15.40;99.90;;;;;;5082653;28;20463;-76
2022/02/23 12:47:59;;;;;;;3.10;1.40;;;15.50;99.90;;;;;;5083017;28;20516;-77
2022/02/23 12:50:28;;;;;;;0.70;0.70;;;15.70;99.90;;;;;;5080257;28;20447;-78
2022/02/23 12:52:57;;;;;;;1.47;0.90;;;15.70;99.90;;;;;;5076818;28;20472;-77
2022/02/23 12:55:25;;;;;;;5.10;0.70;;;15.80;99.90;;;;;;5082752;28;20445;-77
2022/02/23 12:57:53;;;;;;;1.47;0.70;;;15.80;99.90;;;;;;5085695;28;20455;-77
2022/02/23 13:00:24;;;;;;;2.50;1.27;;;15.80;99.90;;;;;;5087237;28;20487;-77
2022/02/23 13:02:52;;;;;;;1.13;1.00;;;15.70;99.90;;;;;;5084171;28;20584;-78
2022/02/23 13:05:21;;;;;;;1.20;0.67;;;15.70;99.90;;;;;;5086216;28;20464;-77
2022/02/23 13:07:50;;;;;;;2.70;0.70;;;15.40;99.90;;;;;;5090927;28;20477;-80
2022/02/23 13:10:18;;;;;;;1.80;0.77;;;15.40;99.90;;;;;;5088306;28;20443;-80
2022/02/23 13:12:48;;;;;;;0.73;0.60;;;15.50;99.90;;;;;;5089819;28;20562;-79
2022/02/23 13:15:16;;;;;;;4.43;0.87;;;15.60;99.90;;;;;;5092769;28;20557;-81
2022/02/23 13:17:46;;;;;;;3.57;0.70;;;15.60;99.90;;;;;;5091843;28;20470;-81
2022/02/23 13:20:16;;;;;;;1.37;0.70;;;15.50;99.90;;;;;;5084647;28;20467;-81
2022/02/23 13:22:44;;;;;;;0.90;0.60;;;15.50;99.90;;;;;;5086016;28;20853;-78
2022/02/23 13:25:14;;;;;;;3.43;0.70;;;15.50;99.90;;;;;;5085354;28;20861;-79
2022/02/23 13:28:05;;;;;;;0.80;0.60;;;15.50;99.90;;;;;;5083478;28;20464;-80